KSFY 040924Z AUTO 15008KT 10SM CLR M14/M18 A3024 RMK AO2
From batch tds/metars/production/2023/2/4/h09_m26_metars.cache.csv.gz
Observed at (10 minutes ago)
Identifier KSFY
ENSK 040924Z 15011KT 9999 FEW018 BKN031 02/M00 Q1025
From batch tds/metars/production/2023/2/4/h09_m26_metars.cache.csv.gz
Observed at (10 minutes ago)
Identifier ENSK
talk